sensor_id;sensor_type;location;lat;lon;timestamp;P1;durP1;ratioP1;P2;durP2;ratioP2
71648;SDS011;59492;45.638;11.714;2022-12-18T00:01:15;3.70;;;3.10;;
71648;SDS011;59492;45.638;11.714;2022-12-18T00:03:42;3.50;;;3.10;;
71648;SDS011;59492;45.638;11.714;2022-12-18T00:06:08;3.30;;;3.00;;
71648;SDS011;59492;45.638;11.714;2022-12-18T00:08:34;3.70;;;3.10;;
71648;SDS011;59492;45.638;11.714;2022-12-18T00:11:06;3.40;;;3.00;;
71648;SDS011;59492;45.638;11.714;2022-12-18T00:13:35;2.90;;;2.60;;
71648;SDS011;59492;45.638;11.714;2022-12-18T00:16:02;3.40;;;2.70;;
71648;SDS011;59492;45.638;11.714;2022-12-18T00:18:30;2.90;;;2.60;;
71648;SDS011;59492;45.638;11.714;2022-12-18T00:20:59;3.40;;;3.10;;
71648;SDS011;59492;45.638;11.714;2022-12-18T00:23:26;4.30;;;2.70;;
71648;SDS011;59492;45.638;11.714;2022-12-18T00:25:53;4.50;;;2.90;;
71648;SDS011;59492;45.638;11.714;2022-12-18T00:28:18;3.10;;;2.60;;
71648;SDS011;59492;45.638;11.714;2022-12-18T00:30:44;3.30;;;2.60;;
71648;SDS011;59492;45.638;11.714;2022-12-18T00:33:09;3.80;;;2.90;;
71648;SDS011;59492;45.638;11.714;2022-12-18T00:35:35;2.80;;;2.50;;
71648;SDS011;59492;45.638;11.714;2022-12-18T00:38:00;3.10;;;2.30;;
71648;SDS011;59492;45.638;11.714;2022-12-18T00:40:26;3.00;;;2.70;;
71648;SDS011;59492;45.638;11.714;2022-12-18T00:42:52;3.60;;;2.60;;
71648;SDS011;59492;45.638;11.714;2022-12-18T00:45:20;2.80;;;2.50;;
71648;SDS011;59492;45.638;11.714;2022-12-18T00:47:50;4.30;;;2.90;;
71648;SDS011;59492;45.638;11.714;2022-12-18T00:50:16;3.30;;;2.80;;
71648;SDS011;59492;45.638;11.714;2022-12-18T00:52:41;2.80;;;2.50;;
71648;SDS011;59492;45.638;11.714;2022-12-18T00:55:10;2.90;;;2.40;;
71648;SDS011;59492;45.638;11.714;2022-12-18T00:57:36;3.80;;;2.90;;
71648;SDS011;59492;45.638;11.714;2022-12-18T01:00:03;2.90;;;2.60;;
71648;SDS011;59492;45.638;11.714;2022-12-18T01:02:30;2.70;;;2.40;;
71648;SDS011;59492;45.638;11.714;2022-12-18T01:04:55;3.30;;;2.60;;
71648;SDS011;59492;45.638;11.714;2022-12-18T01:07:21;3.70;;;2.80;;
71648;SDS011;59492;45.638;11.714;2022-12-18T01:09:47;4.00;;;3.00;;
71648;SDS011;59492;45.638;11.714;2022-12-18T01:12:12;3.40;;;2.80;;
71648;SDS011;59492;45.638;11.714;2022-12-18T01:14:38;3.10;;;2.20;;
71648;SDS011;59492;45.638;11.714;2022-12-18T01:17:03;3.00;;;2.60;;
71648;SDS011;59492;45.638;11.714;2022-12-18T01:19:29;2.70;;;2.40;;
71648;SDS011;59492;45.638;11.714;2022-12-18T01:21:55;3.90;;;2.90;;
71648;SDS011;59492;45.638;11.714;2022-12-18T01:24:20;3.40;;;2.80;;
71648;SDS011;59492;45.638;11.714;2022-12-18T01:26:46;4.20;;;2.70;;
71648;SDS011;59492;45.638;11.714;2022-12-18T01:29:11;3.60;;;3.00;;
71648;SDS011;59492;45.638;11.714;2022-12-18T01:31:37;2.90;;;2.50;;
71648;SDS011;59492;45.638;11.714;2022-12-18T01:34:03;3.20;;;2.30;;
71648;SDS011;59492;45.638;11.714;2022-12-18T01:36:31;2.80;;;2.40;;
71648;SDS011;59492;45.638;11.714;2022-12-18T01:39:03;2.80;;;2.50;;
71648;SDS011;59492;45.638;11.714;2022-12-18T01:41:32;3.30;;;2.60;;
71648;SDS011;59492;45.638;11.714;2022-12-18T01:49:55;3.80;;;2.80;;
71648;SDS011;59492;45.638;11.714;2022-12-18T01:52:22;2.90;;;2.60;;
71648;SDS011;59492;45.638;11.714;2022-12-18T01:54:51;3.10;;;2.40;;
71648;SDS011;59492;45.638;11.714;2022-12-18T01:57:17;3.00;;;2.70;;
71648;SDS011;59492;45.638;11.714;2022-12-18T01:59:43;3.60;;;2.60;;
71648;SDS011;59492;45.638;11.714;2022-12-18T02:02:12;3.10;;;2.70;;
71648;SDS011;59492;45.638;11.714;2022-12-18T02:04:39;3.20;;;2.90;;
71648;SDS011;59492;45.638;11.714;2022-12-18T02:09:45;2.60;;;2.30;;
71648;SDS011;59492;45.638;11.714;2022-12-18T02:12:22;3.20;;;2.70;;
71648;SDS011;59492;45.638;11.714;2022-12-18T02:14:58;3.20;;;2.90;;
71648;SDS011;59492;45.638;11.714;2022-12-18T02:17:34;4.60;;;2.70;;
71648;SDS011;59492;45.638;11.714;2022-12-18T02:27:49;3.10;;;2.80;;
71648;SDS011;59492;45.638;11.714;2022-12-18T02:30:17;3.10;;;2.40;;
71648;SDS011;59492;45.638;11.714;2022-12-18T02:32:45;2.70;;;2.40;;
71648;SDS011;59492;45.638;11.714;2022-12-18T02:35:25;3.90;;;3.00;;
71648;SDS011;59492;45.638;11.714;2022-12-18T02:37:54;2.80;;;2.50;;
71648;SDS011;59492;45.638;11.714;2022-12-18T02:40:20;4.10;;;2.60;;
71648;SDS011;59492;45.638;11.714;2022-12-18T02:42:48;3.30;;;2.50;;
71648;SDS011;59492;45.638;11.714;2022-12-18T02:45:14;3.40;;;3.00;;
71648;SDS011;59492;45.638;11.714;2022-12-18T02:47:40;3.30;;;2.90;;
71648;SDS011;59492;45.638;11.714;2022-12-18T02:50:24;3.00;;;2.60;;
71648;SDS011;59492;45.638;11.714;2022-12-18T02:53:22;2.80;;;2.40;;
71648;SDS011;59492;45.638;11.714;2022-12-18T02:56:02;3.30;;;2.60;;
71648;SDS011;59492;45.638;11.714;2022-12-18T03:06:49;3.00;;;2.60;;
71648;SDS011;59492;45.638;11.714;2022-12-18T03:09:54;3.10;;;2.80;;
71648;SDS011;59492;45.638;11.714;2022-12-18T03:12:16;3.70;;;2.50;;
71648;SDS011;59492;45.638;11.714;2022-12-18T03:17:52;2.80;;;2.50;;
71648;SDS011;59492;45.638;11.714;2022-12-18T03:20:22;3.00;;;2.70;;
71648;SDS011;59492;45.638;11.714;2022-12-18T03:22:53;3.30;;;2.70;;
71648;SDS011;59492;45.638;11.714;2022-12-18T03:25:23;3.20;;;2.60;;
71648;SDS011;59492;45.638;11.714;2022-12-18T03:27:51;3.40;;;2.70;;
71648;SDS011;59492;45.638;11.714;2022-12-18T03:30:21;3.30;;;3.00;;
71648;SDS011;59492;45.638;11.714;2022-12-18T03:32:52;2.80;;;2.30;;
71648;SDS011;59492;45.638;11.714;2022-12-18T03:35:26;3.50;;;2.50;;
71648;SDS011;59492;45.638;11.714;2022-12-18T03:37:55;3.00;;;2.60;;
71648;SDS011;59492;45.638;11.714;2022-12-18T03:40:21;2.70;;;2.40;;
71648;SDS011;59492;45.638;11.714;2022-12-18T03:43:03;3.20;;;2.70;;
71648;SDS011;59492;45.638;11.714;2022-12-18T03:45:40;3.40;;;2.80;;
71648;SDS011;59492;45.638;11.714;2022-12-18T03:48:21;3.90;;;2.70;;
71648;SDS011;59492;45.638;11.714;2022-12-18T03:51:14;3.30;;;2.70;;
71648;SDS011;59492;45.638;11.714;2022-12-18T03:53:57;4.40;;;2.80;;
71648;SDS011;59492;45.638;11.714;2022-12-18T03:56:26;2.80;;;2.50;;
71648;SDS011;59492;45.638;11.714;2022-12-18T04:01:27;3.90;;;2.40;;
71648;SDS011;59492;45.638;11.714;2022-12-18T04:03:57;3.70;;;2.80;;
71648;SDS011;59492;45.638;11.714;2022-12-18T04:06:26;3.80;;;2.70;;
71648;SDS011;59492;45.638;11.714;2022-12-18T04:08:53;2.80;;;2.50;;
71648;SDS011;59492;45.638;11.714;2022-12-18T04:11:18;3.30;;;2.90;;
71648;SDS011;59492;45.638;11.714;2022-12-18T04:13:44;2.90;;;2.60;;
71648;SDS011;59492;45.638;11.714;2022-12-18T04:16:10;2.40;;;2.20;;
71648;SDS011;59492;45.638;11.714;2022-12-18T04:18:36;3.10;;;2.40;;
71648;SDS011;59492;45.638;11.714;2022-12-18T04:21:02;2.90;;;2.50;;
71648;SDS011;59492;45.638;11.714;2022-12-18T04:23:28;2.90;;;2.50;;
71648;SDS011;59492;45.638;11.714;2022-12-18T04:25:54;2.50;;;2.30;;
71648;SDS011;59492;45.638;11.714;2022-12-18T04:28:20;2.80;;;2.50;;
71648;SDS011;59492;45.638;11.714;2022-12-18T04:30:46;4.50;;;2.70;;
71648;SDS011;59492;45.638;11.714;2022-12-18T04:33:11;3.50;;;2.90;;
71648;SDS011;59492;45.638;11.714;2022-12-18T04:35:41;2.90;;;2.50;;
71648;SDS011;59492;45.638;11.714;2022-12-18T04:38:07;3.10;;;2.40;;
71648;SDS011;59492;45.638;11.714;2022-12-18T04:40:36;2.90;;;2.60;;
71648;SDS011;59492;45.638;11.714;2022-12-18T04:43:03;3.20;;;2.60;;
71648;SDS011;59492;45.638;11.714;2022-12-18T04:45:32;2.90;;;2.60;;
71648;SDS011;59492;45.638;11.714;2022-12-18T04:47:58;3.80;;;2.90;;
71648;SDS011;59492;45.638;11.714;2022-12-18T04:50:25;3.40;;;2.50;;
71648;SDS011;59492;45.638;11.714;2022-12-18T04:52:51;3.20;;;2.80;;
71648;SDS011;59492;45.638;11.714;2022-12-18T04:55:16;3.00;;;2.70;;
71648;SDS011;59492;45.638;11.714;2022-12-18T04:57:42;2.50;;;2.30;;
71648;SDS011;59492;45.638;11.714;2022-12-18T05:00:07;2.80;;;2.50;;
71648;SDS011;59492;45.638;11.714;2022-12-18T05:02:33;3.10;;;2.40;;
71648;SDS011;59492;45.638;11.714;2022-12-18T05:04:59;2.70;;;2.50;;
71648;SDS011;59492;45.638;11.714;2022-12-18T05:07:25;3.00;;;2.60;;
71648;SDS011;59492;45.638;11.714;2022-12-18T05:09:50;3.50;;;3.10;;
71648;SDS011;59492;45.638;11.714;2022-12-18T05:12:16;2.90;;;2.50;;
71648;SDS011;59492;45.638;11.714;2022-12-18T05:14:41;3.00;;;2.60;;
71648;SDS011;59492;45.638;11.714;2022-12-18T05:17:07;2.60;;;2.40;;
71648;SDS011;59492;45.638;11.714;2022-12-18T05:19:32;3.10;;;2.60;;
71648;SDS011;59492;45.638;11.714;2022-12-18T05:21:58;3.00;;;2.70;;
71648;SDS011;59492;45.638;11.714;2022-12-18T05:24:24;2.60;;;2.40;;
71648;SDS011;59492;45.638;11.714;2022-12-18T05:26:49;2.70;;;2.40;;
71648;SDS011;59492;45.638;11.714;2022-12-18T05:29:15;2.80;;;2.50;;
71648;SDS011;59492;45.638;11.714;2022-12-18T05:31:40;3.60;;;2.70;;
71648;SDS011;59492;45.638;11.714;2022-12-18T05:34:06;2.70;;;2.40;;
71648;SDS011;59492;45.638;11.714;2022-12-18T05:36:32;3.20;;;2.40;;
71648;SDS011;59492;45.638;11.714;2022-12-18T05:38:58;3.10;;;2.40;;
71648;SDS011;59492;45.638;11.714;2022-12-18T05:41:25;2.80;;;2.50;;
71648;SDS011;59492;45.638;11.714;2022-12-18T05:43:51;3.00;;;2.60;;
71648;SDS011;59492;45.638;11.714;2022-12-18T05:46:16;3.10;;;2.80;;
71648;SDS011;59492;45.638;11.714;2022-12-18T05:48:43;3.60;;;2.90;;
71648;SDS011;59492;45.638;11.714;2022-12-18T05:51:14;3.10;;;2.80;;
71648;SDS011;59492;45.638;11.714;2022-12-18T05:53:41;3.60;;;2.60;;
71648;SDS011;59492;45.638;11.714;2022-12-18T05:56:08;3.80;;;3.00;;
71648;SDS011;59492;45.638;11.714;2022-12-18T05:58:36;3.30;;;2.60;;
71648;SDS011;59492;45.638;11.714;2022-12-18T06:01:10;3.00;;;2.60;;
71648;SDS011;59492;45.638;11.714;2022-12-18T06:03:40;3.00;;;2.50;;
71648;SDS011;59492;45.638;11.714;2022-12-18T06:06:16;3.60;;;3.00;;
71648;SDS011;59492;45.638;11.714;2022-12-18T06:08:44;3.50;;;2.70;;
71648;SDS011;59492;45.638;11.714;2022-12-18T06:11:10;3.30;;;2.80;;
71648;SDS011;59492;45.638;11.714;2022-12-18T06:13:36;3.50;;;3.20;;
71648;SDS011;59492;45.638;11.714;2022-12-18T06:16:05;3.30;;;3.00;;
71648;SDS011;59492;45.638;11.714;2022-12-18T06:18:31;3.40;;;3.00;;
71648;SDS011;59492;45.638;11.714;2022-12-18T06:20:58;3.50;;;2.70;;
71648;SDS011;59492;45.638;11.714;2022-12-18T06:23:25;3.40;;;2.90;;
71648;SDS011;59492;45.638;11.714;2022-12-18T06:25:51;3.20;;;2.70;;
71648;SDS011;59492;45.638;11.714;2022-12-18T06:28:17;3.90;;;3.20;;
71648;SDS011;59492;45.638;11.714;2022-12-18T06:30:43;3.80;;;2.90;;
71648;SDS011;59492;45.638;11.714;2022-12-18T06:33:09;5.70;;;3.10;;
71648;SDS011;59492;45.638;11.714;2022-12-18T06:35:35;3.70;;;2.90;;
71648;SDS011;59492;45.638;11.714;2022-12-18T06:38:01;3.50;;;3.10;;
71648;SDS011;59492;45.638;11.714;2022-12-18T06:40:27;3.60;;;3.10;;
71648;SDS011;59492;45.638;11.714;2022-12-18T06:42:53;4.00;;;3.20;;
71648;SDS011;59492;45.638;11.714;2022-12-18T06:45:19;3.60;;;2.80;;
71648;SDS011;59492;45.638;11.714;2022-12-18T06:47:44;3.50;;;3.10;;
71648;SDS011;59492;45.638;11.714;2022-12-18T06:50:10;4.20;;;3.40;;
71648;SDS011;59492;45.638;11.714;2022-12-18T06:52:37;4.30;;;3.50;;
71648;SDS011;59492;45.638;11.714;2022-12-18T06:55:04;4.50;;;3.50;;
71648;SDS011;59492;45.638;11.714;2022-12-18T06:57:30;5.50;;;3.20;;
71648;SDS011;59492;45.638;11.714;2022-12-18T06:59:55;4.70;;;3.60;;
71648;SDS011;59492;45.638;11.714;2022-12-18T07:02:21;4.50;;;3.30;;
71648;SDS011;59492;45.638;11.714;2022-12-18T07:04:46;3.90;;;3.50;;
71648;SDS011;59492;45.638;11.714;2022-12-18T07:07:12;4.30;;;3.40;;
71648;SDS011;59492;45.638;11.714;2022-12-18T07:09:37;4.10;;;3.70;;
71648;SDS011;59492;45.638;11.714;2022-12-18T07:12:03;6.00;;;3.50;;
71648;SDS011;59492;45.638;11.714;2022-12-18T07:14:29;8.70;;;4.10;;
71648;SDS011;59492;45.638;11.714;2022-12-18T07:16:55;7.60;;;3.70;;
71648;SDS011;59492;45.638;11.714;2022-12-18T07:19:21;6.30;;;4.10;;
71648;SDS011;59492;45.638;11.714;2022-12-18T07:21:46;6.20;;;3.80;;
71648;SDS011;59492;45.638;11.714;2022-12-18T07:24:12;5.70;;;3.70;;
71648;SDS011;59492;45.638;11.714;2022-12-18T07:26:38;5.80;;;3.90;;
71648;SDS011;59492;45.638;11.714;2022-12-18T07:29:03;5.30;;;3.60;;
71648;SDS011;59492;45.638;11.714;2022-12-18T07:31:29;4.80;;;3.50;;
71648;SDS011;59492;45.638;11.714;2022-12-18T07:33:54;7.10;;;3.70;;
71648;SDS011;59492;45.638;11.714;2022-12-18T07:36:20;5.50;;;3.80;;
71648;SDS011;59492;45.638;11.714;2022-12-18T07:38:49;5.60;;;3.70;;
71648;SDS011;59492;45.638;11.714;2022-12-18T07:41:15;7.60;;;3.90;;
71648;SDS011;59492;45.638;11.714;2022-12-18T07:43:41;6.90;;;4.10;;
71648;SDS011;59492;45.638;11.714;2022-12-18T07:46:07;4.80;;;3.80;;
71648;SDS011;59492;45.638;11.714;2022-12-18T07:48:34;7.00;;;4.50;;
71648;SDS011;59492;45.638;11.714;2022-12-18T07:51:00;5.00;;;4.30;;
71648;SDS011;59492;45.638;11.714;2022-12-18T07:53:26;5.40;;;3.90;;
71648;SDS011;59492;45.638;11.714;2022-12-18T07:55:56;5.20;;;3.90;;
71648;SDS011;59492;45.638;11.714;2022-12-18T07:58:27;6.40;;;4.10;;
71648;SDS011;59492;45.638;11.714;2022-12-18T08:00:53;4.70;;;4.20;;
71648;SDS011;59492;45.638;11.714;2022-12-18T08:03:19;4.20;;;3.50;;
71648;SDS011;59492;45.638;11.714;2022-12-18T08:05:44;9.50;;;4.20;;
71648;SDS011;59492;45.638;11.714;2022-12-18T08:08:10;3.90;;;3.60;;
71648;SDS011;59492;45.638;11.714;2022-12-18T08:10:36;4.60;;;3.90;;
71648;SDS011;59492;45.638;11.714;2022-12-18T08:13:03;5.30;;;3.80;;
71648;SDS011;59492;45.638;11.714;2022-12-18T08:15:32;5.90;;;3.60;;
71648;SDS011;59492;45.638;11.714;2022-12-18T08:17:57;7.70;;;4.00;;
71648;SDS011;59492;45.638;11.714;2022-12-18T08:20:23;4.90;;;3.80;;
71648;SDS011;59492;45.638;11.714;2022-12-18T08:22:48;5.30;;;4.10;;
71648;SDS011;59492;45.638;11.714;2022-12-18T08:25:14;4.70;;;3.80;;
71648;SDS011;59492;45.638;11.714;2022-12-18T08:27:39;5.10;;;3.90;;
71648;SDS011;59492;45.638;11.714;2022-12-18T08:30:05;6.50;;;4.10;;
71648;SDS011;59492;45.638;11.714;2022-12-18T08:32:31;5.70;;;4.30;;
71648;SDS011;59492;45.638;11.714;2022-12-18T08:34:58;7.30;;;4.10;;
71648;SDS011;59492;45.638;11.714;2022-12-18T08:37:24;5.50;;;4.10;;
71648;SDS011;59492;45.638;11.714;2022-12-18T08:39:50;7.40;;;4.50;;
71648;SDS011;59492;45.638;11.714;2022-12-18T08:42:15;4.80;;;4.10;;
71648;SDS011;59492;45.638;11.714;2022-12-18T08:45:00;6.60;;;4.20;;
71648;SDS011;59492;45.638;11.714;2022-12-18T08:47:26;6.50;;;4.20;;
71648;SDS011;59492;45.638;11.714;2022-12-18T08:49:51;7.10;;;4.40;;
71648;SDS011;59492;45.638;11.714;2022-12-18T08:52:17;7.10;;;4.50;;
71648;SDS011;59492;45.638;11.714;2022-12-18T08:54:43;6.20;;;4.10;;
71648;SDS011;59492;45.638;11.714;2022-12-18T08:57:08;5.70;;;4.60;;
71648;SDS011;59492;45.638;11.714;2022-12-18T08:59:34;4.80;;;4.20;;
71648;SDS011;59492;45.638;11.714;2022-12-18T09:01:59;6.60;;;4.50;;
71648;SDS011;59492;45.638;11.714;2022-12-18T09:04:29;5.20;;;4.70;;
71648;SDS011;59492;45.638;11.714;2022-12-18T09:06:57;5.90;;;4.80;;
71648;SDS011;59492;45.638;11.714;2022-12-18T09:09:23;6.50;;;5.00;;
71648;SDS011;59492;45.638;11.714;2022-12-18T09:11:54;5.00;;;4.30;;
71648;SDS011;59492;45.638;11.714;2022-12-18T09:14:25;5.70;;;4.60;;
71648;SDS011;59492;45.638;11.714;2022-12-18T09:16:51;5.50;;;4.60;;
71648;SDS011;59492;45.638;11.714;2022-12-18T09:19:16;6.00;;;4.60;;
71648;SDS011;59492;45.638;11.714;2022-12-18T09:21:42;5.40;;;4.40;;
71648;SDS011;59492;45.638;11.714;2022-12-18T09:24:08;5.50;;;4.80;;
71648;SDS011;59492;45.638;11.714;2022-12-18T09:26:38;6.60;;;4.90;;
71648;SDS011;59492;45.638;11.714;2022-12-18T09:29:04;7.00;;;4.90;;
71648;SDS011;59492;45.638;11.714;2022-12-18T09:31:32;6.00;;;4.80;;
71648;SDS011;59492;45.638;11.714;2022-12-18T09:33:58;6.20;;;4.90;;
71648;SDS011;59492;45.638;11.714;2022-12-18T09:36:23;6.10;;;5.30;;
71648;SDS011;59492;45.638;11.714;2022-12-18T09:38:49;7.10;;;5.60;;
71648;SDS011;59492;45.638;11.714;2022-12-18T09:41:31;6.90;;;5.80;;
71648;SDS011;59492;45.638;11.714;2022-12-18T09:44:03;8.50;;;6.00;;
71648;SDS011;59492;45.638;11.714;2022-12-18T09:46:38;11.00;;;6.00;;
71648;SDS011;59492;45.638;11.714;2022-12-18T09:54:14;8.00;;;6.20;;
71648;SDS011;59492;45.638;11.714;2022-12-18T09:56:45;10.40;;;6.60;;
71648;SDS011;59492;45.638;11.714;2022-12-18T09:59:17;11.70;;;6.80;;
71648;SDS011;59492;45.638;11.714;2022-12-18T10:01:43;6.90;;;6.20;;
71648;SDS011;59492;45.638;11.714;2022-12-18T10:04:09;7.10;;;6.40;;
71648;SDS011;59492;45.638;11.714;2022-12-18T10:17:21;8.80;;;6.20;;
71648;SDS011;59492;45.638;11.714;2022-12-18T10:25:28;6.00;;;5.40;;
71648;SDS011;59492;45.638;11.714;2022-12-18T10:28:12;7.70;;;5.50;;
71648;SDS011;59492;45.638;11.714;2022-12-18T10:30:40;8.60;;;5.50;;
71648;SDS011;59492;45.638;11.714;2022-12-18T10:33:10;7.70;;;5.60;;
71648;SDS011;59492;45.638;11.714;2022-12-18T10:35:48;6.30;;;5.70;;
71648;SDS011;59492;45.638;11.714;2022-12-18T10:40:53;7.10;;;5.80;;
71648;SDS011;59492;45.638;11.714;2022-12-18T10:43:24;7.60;;;5.60;;
71648;SDS011;59492;45.638;11.714;2022-12-18T10:51:26;6.50;;;5.10;;
71648;SDS011;59492;45.638;11.714;2022-12-18T10:56:46;6.20;;;5.20;;
71648;SDS011;59492;45.638;11.714;2022-12-18T10:59:14;7.30;;;5.80;;
71648;SDS011;59492;45.638;11.714;2022-12-18T11:04:16;6.50;;;5.40;;
71648;SDS011;59492;45.638;11.714;2022-12-18T11:06:55;7.20;;;5.70;;
71648;SDS011;59492;45.638;11.714;2022-12-18T11:09:27;5.70;;;5.10;;
71648;SDS011;59492;45.638;11.714;2022-12-18T11:11:55;6.70;;;5.20;;
71648;SDS011;59492;45.638;11.714;2022-12-18T11:14:27;8.10;;;6.40;;
71648;SDS011;59492;45.638;11.714;2022-12-18T11:16:55;7.80;;;6.90;;
71648;SDS011;59492;45.638;11.714;2022-12-18T11:19:38;9.70;;;7.30;;
71648;SDS011;59492;45.638;11.714;2022-12-18T11:22:19;10.20;;;8.70;;
71648;SDS011;59492;45.638;11.714;2022-12-18T11:27:24;14.10;;;9.40;;
71648;SDS011;59492;45.638;11.714;2022-12-18T11:29:51;15.10;;;9.90;;
71648;SDS011;59492;45.638;11.714;2022-12-18T11:37:53;14.00;;;10.80;;
71648;SDS011;59492;45.638;11.714;2022-12-18T11:40:30;12.90;;;9.90;;
71648;SDS011;59492;45.638;11.714;2022-12-18T11:43:11;13.10;;;10.20;;
71648;SDS011;59492;45.638;11.714;2022-12-18T11:45:47;15.40;;;10.60;;
71648;SDS011;59492;45.638;11.714;2022-12-18T11:50:53;15.40;;;10.30;;
71648;SDS011;59492;45.638;11.714;2022-12-18T11:53:21;13.10;;;9.80;;
71648;SDS011;59492;45.638;11.714;2022-12-18T12:11:24;11.20;;;9.30;;
71648;SDS011;59492;45.638;11.714;2022-12-18T12:23:02;12.60;;;9.50;;
71648;SDS011;59492;45.638;11.714;2022-12-18T12:25:11;11.00;;;9.00;;
71648;SDS011;59492;45.638;11.714;2022-12-18T12:28:07;10.60;;;8.70;;
71648;SDS011;59492;45.638;11.714;2022-12-18T12:30:55;12.40;;;9.20;;
71648;SDS011;59492;45.638;11.714;2022-12-18T12:39:06;9.30;;;7.80;;
71648;SDS011;59492;45.638;11.714;2022-12-18T12:41:37;12.70;;;8.70;;
71648;SDS011;59492;45.638;11.714;2022-12-18T12:44:25;12.10;;;8.40;;
71648;SDS011;59492;45.638;11.714;2022-12-18T12:46:56;10.80;;;8.20;;
71648;SDS011;59492;45.638;11.714;2022-12-18T12:49:29;11.10;;;8.10;;
71648;SDS011;59492;45.638;11.714;2022-12-18T12:55:00;10.20;;;8.00;;
71648;SDS011;59492;45.638;11.714;2022-12-18T12:57:40;9.70;;;7.80;;
71648;SDS011;59492;45.638;11.714;2022-12-18T13:00:13;11.60;;;8.50;;
71648;SDS011;59492;45.638;11.714;2022-12-18T13:08:03;9.50;;;7.30;;
71648;SDS011;59492;45.638;11.714;2022-12-18T13:10:32;9.60;;;7.90;;
71648;SDS011;59492;45.638;11.714;2022-12-18T13:13:07;9.30;;;7.60;;
71648;SDS011;59492;45.638;11.714;2022-12-18T13:15:44;11.20;;;7.60;;
71648;SDS011;59492;45.638;11.714;2022-12-18T13:18:17;8.10;;;7.00;;
71648;SDS011;59492;45.638;11.714;2022-12-18T13:23:26;11.00;;;7.20;;
71648;SDS011;59492;45.638;11.714;2022-12-18T13:25:55;8.80;;;7.00;;
71648;SDS011;59492;45.638;11.714;2022-12-18T13:31:12;8.20;;;6.60;;
71648;SDS011;59492;45.638;11.714;2022-12-18T13:36:43;9.20;;;7.00;;
71648;SDS011;59492;45.638;11.714;2022-12-18T13:39:10;10.20;;;7.10;;
71648;SDS011;59492;45.638;11.714;2022-12-18T13:41:39;7.50;;;6.70;;
71648;SDS011;59492;45.638;11.714;2022-12-18T13:44:13;7.40;;;6.50;;
71648;SDS011;59492;45.638;11.714;2022-12-18T13:46:58;7.40;;;6.50;;
71648;SDS011;59492;45.638;11.714;2022-12-18T13:49:26;8.60;;;6.40;;
71648;SDS011;59492;45.638;11.714;2022-12-18T13:52:00;8.90;;;6.10;;
71648;SDS011;59492;45.638;11.714;2022-12-18T13:54:36;8.50;;;7.00;;
71648;SDS011;59492;45.638;11.714;2022-12-18T13:57:05;7.30;;;6.00;;
71648;SDS011;59492;45.638;11.714;2022-12-18T13:59:50;11.20;;;6.90;;
71648;SDS011;59492;45.638;11.714;2022-12-18T14:02:17;8.70;;;6.90;;
71648;SDS011;59492;45.638;11.714;2022-12-18T14:04:47;8.40;;;6.60;;
71648;SDS011;59492;45.638;11.714;2022-12-18T14:07:15;7.70;;;6.60;;
71648;SDS011;59492;45.638;11.714;2022-12-18T14:09:46;8.50;;;6.20;;
71648;SDS011;59492;45.638;11.714;2022-12-18T14:12:17;8.10;;;6.20;;
71648;SDS011;59492;45.638;11.714;2022-12-18T14:15:05;9.00;;;6.10;;
71648;SDS011;59492;45.638;11.714;2022-12-18T14:17:40;11.50;;;6.50;;
71648;SDS011;59492;45.638;11.714;2022-12-18T14:20:12;9.10;;;6.50;;
71648;SDS011;59492;45.638;11.714;2022-12-18T14:22:39;12.00;;;6.10;;
71648;SDS011;59492;45.638;11.714;2022-12-18T14:25:14;17.10;;;6.80;;
71648;SDS011;59492;45.638;11.714;2022-12-18T14:30:32;25.40;;;8.50;;
71648;SDS011;59492;45.638;11.714;2022-12-18T14:35:38;25.00;;;8.70;;
71648;SDS011;59492;45.638;11.714;2022-12-18T14:40:43;30.30;;;9.60;;
71648;SDS011;59492;45.638;11.714;2022-12-18T14:43:11;30.90;;;9.50;;
71648;SDS011;59492;45.638;11.714;2022-12-18T14:45:44;29.90;;;9.70;;
71648;SDS011;59492;45.638;11.714;2022-12-18T14:50:37;31.70;;;8.80;;
71648;SDS011;59492;45.638;11.714;2022-12-18T14:53:03;28.60;;;9.40;;
71648;SDS011;59492;45.638;11.714;2022-12-18T14:55:29;23.00;;;9.70;;
71648;SDS011;59492;45.638;11.714;2022-12-18T14:57:55;27.00;;;10.40;;
71648;SDS011;59492;45.638;11.714;2022-12-18T15:00:22;30.40;;;10.80;;
71648;SDS011;59492;45.638;11.714;2022-12-18T15:02:50;25.50;;;9.80;;
71648;SDS011;59492;45.638;11.714;2022-12-18T15:05:28;20.30;;;9.10;;
71648;SDS011;59492;45.638;11.714;2022-12-18T15:07:56;27.70;;;9.60;;
71648;SDS011;59492;45.638;11.714;2022-12-18T15:10:33;26.90;;;10.00;;
71648;SDS011;59492;45.638;11.714;2022-12-18T15:13:21;21.20;;;9.60;;
71648;SDS011;59492;45.638;11.714;2022-12-18T15:15:49;23.20;;;9.90;;
71648;SDS011;59492;45.638;11.714;2022-12-18T15:18:17;22.00;;;9.80;;
71648;SDS011;59492;45.638;11.714;2022-12-18T15:20:49;26.60;;;9.60;;
71648;SDS011;59492;45.638;11.714;2022-12-18T15:23:24;24.00;;;9.30;;
71648;SDS011;59492;45.638;11.714;2022-12-18T15:26:00;21.20;;;9.00;;
71648;SDS011;59492;45.638;11.714;2022-12-18T15:31:03;20.90;;;9.60;;
71648;SDS011;59492;45.638;11.714;2022-12-18T15:33:32;21.50;;;9.20;;
71648;SDS011;59492;45.638;11.714;2022-12-18T15:36:01;26.00;;;10.30;;
71648;SDS011;59492;45.638;11.714;2022-12-18T15:38:29;21.20;;;9.90;;
71648;SDS011;59492;45.638;11.714;2022-12-18T15:40:55;20.60;;;9.90;;
71648;SDS011;59492;45.638;11.714;2022-12-18T15:43:22;29.90;;;9.60;;
71648;SDS011;59492;45.638;11.714;2022-12-18T15:48:34;21.60;;;9.20;;
71648;SDS011;59492;45.638;11.714;2022-12-18T15:51:04;18.60;;;8.80;;
71648;SDS011;59492;45.638;11.714;2022-12-18T15:53:33;17.70;;;8.90;;
71648;SDS011;59492;45.638;11.714;2022-12-18T15:55:59;20.20;;;9.70;;
71648;SDS011;59492;45.638;11.714;2022-12-18T15:58:43;19.30;;;8.60;;
71648;SDS011;59492;45.638;11.714;2022-12-18T16:01:09;17.70;;;8.80;;
71648;SDS011;59492;45.638;11.714;2022-12-18T16:03:36;19.30;;;8.90;;
71648;SDS011;59492;45.638;11.714;2022-12-18T16:06:01;21.20;;;8.70;;
71648;SDS011;59492;45.638;11.714;2022-12-18T16:08:30;22.80;;;8.30;;
71648;SDS011;59492;45.638;11.714;2022-12-18T16:10:57;14.70;;;7.70;;
71648;SDS011;59492;45.638;11.714;2022-12-18T16:13:23;15.20;;;7.90;;
71648;SDS011;59492;45.638;11.714;2022-12-18T16:15:49;16.50;;;7.90;;
71648;SDS011;59492;45.638;11.714;2022-12-18T16:18:14;15.30;;;8.40;;
71648;SDS011;59492;45.638;11.714;2022-12-18T16:20:40;21.40;;;9.00;;
71648;SDS011;59492;45.638;11.714;2022-12-18T16:23:06;16.90;;;8.90;;
71648;SDS011;59492;45.638;11.714;2022-12-18T16:25:31;17.50;;;9.10;;
71648;SDS011;59492;45.638;11.714;2022-12-18T16:27:58;16.70;;;8.20;;
71648;SDS011;59492;45.638;11.714;2022-12-18T16:30:24;18.10;;;9.10;;
71648;SDS011;59492;45.638;11.714;2022-12-18T16:32:55;15.60;;;8.70;;
71648;SDS011;59492;45.638;11.714;2022-12-18T16:35:20;16.30;;;8.40;;
71648;SDS011;59492;45.638;11.714;2022-12-18T16:37:48;15.80;;;7.90;;
71648;SDS011;59492;45.638;11.714;2022-12-18T16:40:15;16.40;;;8.60;;
71648;SDS011;59492;45.638;11.714;2022-12-18T16:42:43;16.50;;;8.00;;
71648;SDS011;59492;45.638;11.714;2022-12-18T16:45:11;18.00;;;7.70;;
71648;SDS011;59492;45.638;11.714;2022-12-18T16:47:39;20.30;;;8.50;;
71648;SDS011;59492;45.638;11.714;2022-12-18T16:50:05;13.50;;;8.50;;
71648;SDS011;59492;45.638;11.714;2022-12-18T16:52:32;15.90;;;7.60;;
71648;SDS011;59492;45.638;11.714;2022-12-18T16:54:58;17.60;;;9.00;;
71648;SDS011;59492;45.638;11.714;2022-12-18T16:57:25;13.30;;;7.40;;
71648;SDS011;59492;45.638;11.714;2022-12-18T16:59:51;11.60;;;7.10;;